sensor_id;sensor_type;location;lat;lon;timestamp;P1;durP1;ratioP1;P2;durP2;ratioP2
59366;SDS011;45163;47.690;11.770;2022-08-30T00:00:43;8.53;;;6.13;;
59366;SDS011;45163;47.690;11.770;2022-08-30T00:03:38;7.33;;;5.60;;
59366;SDS011;45163;47.690;11.770;2022-08-30T00:06:10;7.33;;;5.03;;
59366;SDS011;45163;47.690;11.770;2022-08-30T00:08:39;8.63;;;5.83;;
59366;SDS011;45163;47.690;11.770;2022-08-30T00:11:07;6.77;;;5.90;;
59366;SDS011;45163;47.690;11.770;2022-08-30T00:13:38;6.40;;;5.80;;
59366;SDS011;45163;47.690;11.770;2022-08-30T00:16:06;6.30;;;5.70;;
59366;SDS011;45163;47.690;11.770;2022-08-30T00:18:33;12.43;;;6.00;;
59366;SDS011;45163;47.690;11.770;2022-08-30T00:21:00;7.80;;;6.13;;
59366;SDS011;45163;47.690;11.770;2022-08-30T00:23:27;7.33;;;6.07;;
59366;SDS011;45163;47.690;11.770;2022-08-30T00:25:53;10.47;;;6.20;;
59366;SDS011;45163;47.690;11.770;2022-08-30T00:28:19;8.20;;;6.00;;
59366;SDS011;45163;47.690;11.770;2022-08-30T00:30:46;7.70;;;5.87;;
59366;SDS011;45163;47.690;11.770;2022-08-30T00:33:13;7.50;;;5.60;;
59366;SDS011;45163;47.690;11.770;2022-08-30T00:35:39;7.77;;;5.50;;
59366;SDS011;45163;47.690;11.770;2022-08-30T00:38:07;6.93;;;6.20;;
59366;SDS011;45163;47.690;11.770;2022-08-30T00:40:34;8.67;;;5.40;;
59366;SDS011;45163;47.690;11.770;2022-08-30T00:43:01;5.97;;;5.30;;
59366;SDS011;45163;47.690;11.770;2022-08-30T00:45:34;6.30;;;5.70;;
59366;SDS011;45163;47.690;11.770;2022-08-30T00:48:02;8.40;;;5.70;;
59366;SDS011;45163;47.690;11.770;2022-08-30T00:53:22;6.57;;;5.83;;
59366;SDS011;45163;47.690;11.770;2022-08-30T00:55:51;6.20;;;5.60;;
59366;SDS011;45163;47.690;11.770;2022-08-30T00:58:20;7.27;;;5.67;;
59366;SDS011;45163;47.690;11.770;2022-08-30T01:00:50;7.73;;;5.90;;
59366;SDS011;45163;47.690;11.770;2022-08-30T01:03:19;9.63;;;6.17;;
59366;SDS011;45163;47.690;11.770;2022-08-30T01:05:46;6.37;;;5.53;;
59366;SDS011;45163;47.690;11.770;2022-08-30T01:08:14;5.60;;;5.10;;
59366;SDS011;45163;47.690;11.770;2022-08-30T01:10:40;7.23;;;5.43;;
59366;SDS011;45163;47.690;11.770;2022-08-30T01:13:06;6.13;;;5.53;;
59366;SDS011;45163;47.690;11.770;2022-08-30T01:15:34;8.97;;;6.13;;
59366;SDS011;45163;47.690;11.770;2022-08-30T01:18:00;7.67;;;5.60;;
59366;SDS011;45163;47.690;11.770;2022-08-30T01:20:31;7.00;;;5.40;;
59366;SDS011;45163;47.690;11.770;2022-08-30T01:23:12;6.67;;;5.97;;
59366;SDS011;45163;47.690;11.770;2022-08-30T01:25:40;10.30;;;5.87;;
59366;SDS011;45163;47.690;11.770;2022-08-30T01:28:11;7.90;;;5.43;;
59366;SDS011;45163;47.690;11.770;2022-08-30T01:30:40;9.80;;;5.40;;
59366;SDS011;45163;47.690;11.770;2022-08-30T01:33:09;6.83;;;5.93;;
59366;SDS011;45163;47.690;11.770;2022-08-30T01:35:56;9.17;;;5.97;;
59366;SDS011;45163;47.690;11.770;2022-08-30T01:38:37;5.87;;;5.27;;
59366;SDS011;45163;47.690;11.770;2022-08-30T01:41:15;7.33;;;5.57;;
59366;SDS011;45163;47.690;11.770;2022-08-30T01:43:53;7.50;;;5.70;;
59366;SDS011;45163;47.690;11.770;2022-08-30T01:46:22;7.27;;;5.90;;
59366;SDS011;45163;47.690;11.770;2022-08-30T01:48:50;7.37;;;5.93;;
59366;SDS011;45163;47.690;11.770;2022-08-30T01:51:18;6.63;;;5.80;;
59366;SDS011;45163;47.690;11.770;2022-08-30T01:53:45;6.40;;;5.80;;
59366;SDS011;45163;47.690;11.770;2022-08-30T01:56:11;11.30;;;6.90;;
59366;SDS011;45163;47.690;11.770;2022-08-30T01:58:38;9.63;;;5.90;;
59366;SDS011;45163;47.690;11.770;2022-08-30T02:01:06;6.87;;;6.17;;
59366;SDS011;45163;47.690;11.770;2022-08-30T02:03:34;7.20;;;6.20;;
59366;SDS011;45163;47.690;11.770;2022-08-30T02:06:02;14.30;;;6.13;;
59366;SDS011;45163;47.690;11.770;2022-08-30T02:08:32;7.57;;;6.17;;
59366;SDS011;45163;47.690;11.770;2022-08-30T02:11:00;7.93;;;5.50;;
59366;SDS011;45163;47.690;11.770;2022-08-30T02:13:26;6.27;;;5.67;;
59366;SDS011;45163;47.690;11.770;2022-08-30T02:15:52;6.33;;;5.50;;
59366;SDS011;45163;47.690;11.770;2022-08-30T02:18:22;6.17;;;5.30;;
59366;SDS011;45163;47.690;11.770;2022-08-30T02:20:49;7.57;;;5.07;;
59366;SDS011;45163;47.690;11.770;2022-08-30T02:23:16;8.50;;;6.13;;
59366;SDS011;45163;47.690;11.770;2022-08-30T02:25:42;9.07;;;5.73;;
59366;SDS011;45163;47.690;11.770;2022-08-30T02:28:11;6.53;;;5.90;;
59366;SDS011;45163;47.690;11.770;2022-08-30T02:30:40;8.37;;;5.70;;
59366;SDS011;45163;47.690;11.770;2022-08-30T02:33:07;8.57;;;6.50;;
59366;SDS011;45163;47.690;11.770;2022-08-30T02:35:33;6.10;;;5.50;;
59366;SDS011;45163;47.690;11.770;2022-08-30T02:37:59;7.57;;;6.27;;
59366;SDS011;45163;47.690;11.770;2022-08-30T02:40:25;7.23;;;6.27;;
59366;SDS011;45163;47.690;11.770;2022-08-30T02:42:51;6.37;;;5.70;;
59366;SDS011;45163;47.690;11.770;2022-08-30T02:45:17;5.63;;;5.10;;
59366;SDS011;45163;47.690;11.770;2022-08-30T02:47:43;6.30;;;5.10;;
59366;SDS011;45163;47.690;11.770;2022-08-30T02:50:09;7.37;;;5.73;;
59366;SDS011;45163;47.690;11.770;2022-08-30T02:52:36;7.87;;;5.37;;
59366;SDS011;45163;47.690;11.770;2022-08-30T02:55:03;10.93;;;6.20;;
59366;SDS011;45163;47.690;11.770;2022-08-30T02:57:30;6.87;;;6.20;;
59366;SDS011;45163;47.690;11.770;2022-08-30T02:59:57;9.87;;;6.10;;
59366;SDS011;45163;47.690;11.770;2022-08-30T03:02:24;6.93;;;5.87;;
59366;SDS011;45163;47.690;11.770;2022-08-30T03:04:51;6.27;;;5.60;;
59366;SDS011;45163;47.690;11.770;2022-08-30T03:07:17;5.90;;;5.20;;
59366;SDS011;45163;47.690;11.770;2022-08-30T03:09:44;5.97;;;5.30;;
59366;SDS011;45163;47.690;11.770;2022-08-30T03:12:10;6.53;;;5.50;;
59366;SDS011;45163;47.690;11.770;2022-08-30T03:14:38;6.80;;;6.10;;
59366;SDS011;45163;47.690;11.770;2022-08-30T03:17:04;6.70;;;5.87;;
59366;SDS011;45163;47.690;11.770;2022-08-30T03:19:32;9.97;;;6.30;;
59366;SDS011;45163;47.690;11.770;2022-08-30T03:22:04;9.47;;;6.40;;
59366;SDS011;45163;47.690;11.770;2022-08-30T03:24:31;7.83;;;5.90;;
59366;SDS011;45163;47.690;11.770;2022-08-30T03:26:58;8.83;;;6.30;;
59366;SDS011;45163;47.690;11.770;2022-08-30T03:29:24;6.97;;;6.27;;
59366;SDS011;45163;47.690;11.770;2022-08-30T03:31:50;11.87;;;6.93;;
59366;SDS011;45163;47.690;11.770;2022-08-30T03:34:17;10.73;;;6.67;;
59366;SDS011;45163;47.690;11.770;2022-08-30T03:36:43;7.57;;;6.70;;
59366;SDS011;45163;47.690;11.770;2022-08-30T03:39:10;6.90;;;6.23;;
59366;SDS011;45163;47.690;11.770;2022-08-30T03:41:36;6.93;;;6.23;;
59366;SDS011;45163;47.690;11.770;2022-08-30T03:44:02;8.00;;;5.93;;
59366;SDS011;45163;47.690;11.770;2022-08-30T03:46:28;8.83;;;6.30;;
59366;SDS011;45163;47.690;11.770;2022-08-30T03:48:54;8.37;;;5.50;;
59366;SDS011;45163;47.690;11.770;2022-08-30T03:51:24;6.37;;;5.57;;
59366;SDS011;45163;47.690;11.770;2022-08-30T03:53:50;12.23;;;5.30;;
59366;SDS011;45163;47.690;11.770;2022-08-30T03:56:16;8.57;;;5.93;;
59366;SDS011;45163;47.690;11.770;2022-08-30T03:58:43;6.93;;;5.87;;
59366;SDS011;45163;47.690;11.770;2022-08-30T04:01:10;8.73;;;6.30;;
59366;SDS011;45163;47.690;11.770;2022-08-30T04:03:36;6.90;;;5.87;;
59366;SDS011;45163;47.690;11.770;2022-08-30T04:06:02;7.30;;;6.10;;
59366;SDS011;45163;47.690;11.770;2022-08-30T04:08:29;6.90;;;6.17;;
59366;SDS011;45163;47.690;11.770;2022-08-30T04:10:55;8.50;;;6.47;;
59366;SDS011;45163;47.690;11.770;2022-08-30T04:13:22;6.70;;;5.60;;
59366;SDS011;45163;47.690;11.770;2022-08-30T04:15:49;6.70;;;5.87;;
59366;SDS011;45163;47.690;11.770;2022-08-30T04:18:16;7.77;;;5.70;;
59366;SDS011;45163;47.690;11.770;2022-08-30T04:20:42;6.57;;;5.80;;
59366;SDS011;45163;47.690;11.770;2022-08-30T04:23:08;8.13;;;5.97;;
59366;SDS011;45163;47.690;11.770;2022-08-30T04:25:36;12.07;;;6.00;;
59366;SDS011;45163;47.690;11.770;2022-08-30T04:28:03;11.07;;;6.47;;
59366;SDS011;45163;47.690;11.770;2022-08-30T04:30:30;10.33;;;6.73;;
59366;SDS011;45163;47.690;11.770;2022-08-30T04:32:56;7.83;;;6.40;;
59366;SDS011;45163;47.690;11.770;2022-08-30T04:35:22;7.97;;;7.03;;
59366;SDS011;45163;47.690;11.770;2022-08-30T04:37:49;9.20;;;6.53;;
59366;SDS011;45163;47.690;11.770;2022-08-30T04:40:15;7.47;;;6.67;;
59366;SDS011;45163;47.690;11.770;2022-08-30T04:42:41;9.70;;;6.90;;
59366;SDS011;45163;47.690;11.770;2022-08-30T04:45:10;7.20;;;6.40;;
59366;SDS011;45163;47.690;11.770;2022-08-30T04:47:39;9.67;;;6.20;;
59366;SDS011;45163;47.690;11.770;2022-08-30T04:50:10;7.20;;;6.23;;
59366;SDS011;45163;47.690;11.770;2022-08-30T04:52:37;8.23;;;6.23;;
59366;SDS011;45163;47.690;11.770;2022-08-30T04:55:04;10.07;;;6.20;;
59366;SDS011;45163;47.690;11.770;2022-08-30T04:57:31;11.73;;;6.33;;
59366;SDS011;45163;47.690;11.770;2022-08-30T04:59:57;8.07;;;5.93;;
59366;SDS011;45163;47.690;11.770;2022-08-30T05:02:23;8.57;;;6.60;;
59366;SDS011;45163;47.690;11.770;2022-08-30T05:04:49;8.30;;;6.80;;
59366;SDS011;45163;47.690;11.770;2022-08-30T05:07:34;8.47;;;6.57;;
59366;SDS011;45163;47.690;11.770;2022-08-30T05:10:00;8.77;;;6.50;;
59366;SDS011;45163;47.690;11.770;2022-08-30T05:12:26;8.37;;;6.30;;
59366;SDS011;45163;47.690;11.770;2022-08-30T05:14:52;9.60;;;6.67;;
59366;SDS011;45163;47.690;11.770;2022-08-30T05:17:18;11.70;;;7.07;;
59366;SDS011;45163;47.690;11.770;2022-08-30T05:19:44;8.50;;;6.83;;
59366;SDS011;45163;47.690;11.770;2022-08-30T05:22:10;7.17;;;6.20;;
59366;SDS011;45163;47.690;11.770;2022-08-30T05:24:36;8.73;;;6.80;;
59366;SDS011;45163;47.690;11.770;2022-08-30T05:27:02;7.07;;;6.10;;
59366;SDS011;45163;47.690;11.770;2022-08-30T05:29:32;7.33;;;6.47;;
59366;SDS011;45163;47.690;11.770;2022-08-30T05:31:58;6.57;;;5.87;;
59366;SDS011;45163;47.690;11.770;2022-08-30T05:34:25;7.00;;;6.10;;
59366;SDS011;45163;47.690;11.770;2022-08-30T05:36:53;8.97;;;5.97;;
59366;SDS011;45163;47.690;11.770;2022-08-30T05:39:20;6.37;;;5.73;;
59366;SDS011;45163;47.690;11.770;2022-08-30T05:41:46;7.17;;;5.97;;
59366;SDS011;45163;47.690;11.770;2022-08-30T05:44:12;9.07;;;5.83;;
59366;SDS011;45163;47.690;11.770;2022-08-30T05:46:38;5.80;;;5.20;;
59366;SDS011;45163;47.690;11.770;2022-08-30T05:49:10;6.27;;;5.37;;
59366;SDS011;45163;47.690;11.770;2022-08-30T05:51:36;6.23;;;5.63;;
59366;SDS011;45163;47.690;11.770;2022-08-30T05:54:03;9.97;;;5.77;;
59366;SDS011;45163;47.690;11.770;2022-08-30T05:56:31;7.13;;;5.77;;
59366;SDS011;45163;47.690;11.770;2022-08-30T05:58:59;7.07;;;5.23;;
59366;SDS011;45163;47.690;11.770;2022-08-30T06:01:30;9.73;;;5.80;;
59366;SDS011;45163;47.690;11.770;2022-08-30T06:04:00;8.27;;;5.20;;
59366;SDS011;45163;47.690;11.770;2022-08-30T06:06:28;7.00;;;5.47;;
59366;SDS011;45163;47.690;11.770;2022-08-30T06:08:55;6.90;;;4.93;;
59366;SDS011;45163;47.690;11.770;2022-08-30T06:11:22;5.87;;;4.77;;
59366;SDS011;45163;47.690;11.770;2022-08-30T06:13:50;10.27;;;4.87;;
59366;SDS011;45163;47.690;11.770;2022-08-30T06:16:18;5.37;;;4.60;;
59366;SDS011;45163;47.690;11.770;2022-08-30T06:18:46;4.83;;;4.33;;
59366;SDS011;45163;47.690;11.770;2022-08-30T06:21:20;7.27;;;4.70;;
59366;SDS011;45163;47.690;11.770;2022-08-30T06:23:46;4.73;;;4.07;;
59366;SDS011;45163;47.690;11.770;2022-08-30T06:26:13;4.30;;;3.90;;
59366;SDS011;45163;47.690;11.770;2022-08-30T06:28:39;6.17;;;3.80;;
59366;SDS011;45163;47.690;11.770;2022-08-30T06:31:09;4.23;;;3.80;;
59366;SDS011;45163;47.690;11.770;2022-08-30T06:33:36;5.03;;;3.80;;
59366;SDS011;45163;47.690;11.770;2022-08-30T06:36:03;4.47;;;3.40;;
59366;SDS011;45163;47.690;11.770;2022-08-30T06:38:35;4.43;;;3.50;;
59366;SDS011;45163;47.690;11.770;2022-08-30T06:41:07;5.27;;;4.07;;
59366;SDS011;45163;47.690;11.770;2022-08-30T06:43:35;4.07;;;3.53;;
59366;SDS011;45163;47.690;11.770;2022-08-30T06:46:05;4.18;;;3.53;;
59366;SDS011;45163;47.690;11.770;2022-08-30T06:48:36;8.18;;;4.40;;
59366;SDS011;45163;47.690;11.770;2022-08-30T06:51:02;4.03;;;3.42;;
59366;SDS011;45163;47.690;11.770;2022-08-30T06:53:29;4.45;;;3.00;;
59366;SDS011;45163;47.690;11.770;2022-08-30T06:55:56;5.18;;;3.60;;
59366;SDS011;45163;47.690;11.770;2022-08-30T06:58:32;4.72;;;3.67;;
59366;SDS011;45163;47.690;11.770;2022-08-30T07:00:59;5.18;;;3.63;;
59366;SDS011;45163;47.690;11.770;2022-08-30T07:03:25;3.78;;;3.38;;
59366;SDS011;45163;47.690;11.770;2022-08-30T07:05:52;8.90;;;3.30;;
59366;SDS011;45163;47.690;11.770;2022-08-30T07:08:19;5.18;;;3.30;;
59366;SDS011;45163;47.690;11.770;2022-08-30T07:10:45;3.47;;;3.17;;
59366;SDS011;45163;47.690;11.770;2022-08-30T07:13:11;3.42;;;3.10;;
59366;SDS011;45163;47.690;11.770;2022-08-30T07:15:39;4.05;;;3.47;;
59366;SDS011;45163;47.690;11.770;2022-08-30T07:18:08;3.75;;;3.30;;
59366;SDS011;45163;47.690;11.770;2022-08-30T07:20:53;4.28;;;3.40;;
59366;SDS011;45163;47.690;11.770;2022-08-30T07:23:19;4.18;;;3.28;;
59366;SDS011;45163;47.690;11.770;2022-08-30T07:25:46;4.15;;;3.53;;
59366;SDS011;45163;47.690;11.770;2022-08-30T07:28:12;4.35;;;3.20;;
59366;SDS011;45163;47.690;11.770;2022-08-30T07:30:39;4.95;;;3.50;;
59366;SDS011;45163;47.690;11.770;2022-08-30T07:33:06;4.38;;;3.45;;
59366;SDS011;45163;47.690;11.770;2022-08-30T07:35:32;5.45;;;3.20;;
59366;SDS011;45163;47.690;11.770;2022-08-30T07:37:59;4.93;;;3.30;;
59366;SDS011;45163;47.690;11.770;2022-08-30T07:40:25;6.82;;;3.30;;
59366;SDS011;45163;47.690;11.770;2022-08-30T07:42:52;6.68;;;3.22;;
59366;SDS011;45163;47.690;11.770;2022-08-30T07:45:18;3.50;;;3.20;;
59366;SDS011;45163;47.690;11.770;2022-08-30T07:47:44;3.40;;;3.10;;
59366;SDS011;45163;47.690;11.770;2022-08-30T07:50:10;5.38;;;3.50;;
59366;SDS011;45163;47.690;11.770;2022-08-30T07:52:36;5.68;;;3.03;;
59366;SDS011;45163;47.690;11.770;2022-08-30T07:55:03;6.13;;;3.83;;
59366;SDS011;45163;47.690;11.770;2022-08-30T07:57:30;6.13;;;3.20;;
59366;SDS011;45163;47.690;11.770;2022-08-30T07:59:59;3.25;;;2.95;;
59366;SDS011;45163;47.690;11.770;2022-08-30T08:02:25;3.67;;;3.38;;
59366;SDS011;45163;47.690;11.770;2022-08-30T08:04:51;5.97;;;3.60;;
59366;SDS011;45163;47.690;11.770;2022-08-30T08:07:17;3.28;;;2.97;;
59366;SDS011;45163;47.690;11.770;2022-08-30T08:09:44;6.70;;;3.40;;
59366;SDS011;45163;47.690;11.770;2022-08-30T08:12:10;4.32;;;3.50;;
59366;SDS011;45163;47.690;11.770;2022-08-30T08:14:36;4.15;;;3.28;;
59366;SDS011;45163;47.690;11.770;2022-08-30T08:17:02;3.58;;;3.10;;
59366;SDS011;45163;47.690;11.770;2022-08-30T08:19:29;4.10;;;3.50;;
59366;SDS011;45163;47.690;11.770;2022-08-30T08:21:55;3.25;;;2.95;;
59366;SDS011;45163;47.690;11.770;2022-08-30T08:24:25;4.97;;;3.40;;
59366;SDS011;45163;47.690;11.770;2022-08-30T08:26:52;4.88;;;3.42;;
59366;SDS011;45163;47.690;11.770;2022-08-30T08:29:19;3.60;;;3.30;;
59366;SDS011;45163;47.690;11.770;2022-08-30T08:31:46;6.88;;;3.60;;
59366;SDS011;45163;47.690;11.770;2022-08-30T08:34:13;4.35;;;3.40;;
59366;SDS011;45163;47.690;11.770;2022-08-30T08:36:39;4.25;;;3.75;;
59366;SDS011;45163;47.690;11.770;2022-08-30T08:39:07;4.10;;;3.60;;
59366;SDS011;45163;47.690;11.770;2022-08-30T08:47:13;5.35;;;3.70;;
59366;SDS011;45163;47.690;11.770;2022-08-30T08:49:44;7.38;;;3.90;;
59366;SDS011;45163;47.690;11.770;2022-08-30T08:52:15;4.00;;;3.60;;
59366;SDS011;45163;47.690;11.770;2022-08-30T08:55:21;4.13;;;3.72;;
59366;SDS011;45163;47.690;11.770;2022-08-30T08:57:49;4.22;;;3.50;;
59366;SDS011;45163;47.690;11.770;2022-08-30T09:00:16;4.57;;;3.80;;
59366;SDS011;45163;47.690;11.770;2022-08-30T09:02:44;4.90;;;4.05;;
59366;SDS011;45163;47.690;11.770;2022-08-30T09:05:19;4.53;;;3.90;;
59366;SDS011;45163;47.690;11.770;2022-08-30T09:08:00;6.60;;;5.88;;
59366;SDS011;45163;47.690;11.770;2022-08-30T09:10:29;4.50;;;4.05;;
59366;SDS011;45163;47.690;11.770;2022-08-30T09:12:58;5.07;;;4.63;;
59366;SDS011;45163;47.690;11.770;2022-08-30T09:15:26;7.80;;;4.15;;
59366;SDS011;45163;47.690;11.770;2022-08-30T09:18:05;8.75;;;3.97;;
59366;SDS011;45163;47.690;11.770;2022-08-30T09:20:42;7.18;;;3.78;;
59366;SDS011;45163;47.690;11.770;2022-08-30T09:25:50;6.18;;;3.72;;
59366;SDS011;45163;47.690;11.770;2022-08-30T09:28:25;4.35;;;3.88;;
59366;SDS011;45163;47.690;11.770;2022-08-30T09:33:22;4.13;;;3.72;;
59366;SDS011;45163;47.690;11.770;2022-08-30T09:35:49;7.60;;;3.63;;
59366;SDS011;45163;47.690;11.770;2022-08-30T09:38:18;5.20;;;3.78;;
59366;SDS011;45163;47.690;11.770;2022-08-30T09:40:52;3.63;;;3.33;;
59366;SDS011;45163;47.690;11.770;2022-08-30T09:43:22;4.40;;;3.42;;
59366;SDS011;45163;47.690;11.770;2022-08-30T09:48:29;4.55;;;3.45;;
59366;SDS011;45163;47.690;11.770;2022-08-30T09:53:34;5.78;;;3.17;;
59366;SDS011;45163;47.690;11.770;2022-08-30T09:59:37;4.15;;;3.70;;
59366;SDS011;45163;47.690;11.770;2022-08-30T10:05:30;3.95;;;3.58;;
59366;SDS011;45163;47.690;11.770;2022-08-30T10:07:48;4.97;;;3.53;;
59366;SDS011;45163;47.690;11.770;2022-08-30T10:10:36;3.50;;;3.20;;
59366;SDS011;45163;47.690;11.770;2022-08-30T10:15:57;11.00;;;9.18;;
59366;SDS011;45163;47.690;11.770;2022-08-30T10:21:37;4.93;;;4.43;;
59366;SDS011;45163;47.690;11.770;2022-08-30T10:24:12;4.28;;;3.88;;
59366;SDS011;45163;47.690;11.770;2022-08-30T10:29:22;3.80;;;3.33;;
59366;SDS011;45163;47.690;11.770;2022-08-30T10:31:55;4.90;;;3.35;;
59366;SDS011;45163;47.690;11.770;2022-08-30T10:34:45;4.55;;;3.60;;
59366;SDS011;45163;47.690;11.770;2022-08-30T10:37:25;3.72;;;3.40;;
59366;SDS011;45163;47.690;11.770;2022-08-30T10:40:12;5.05;;;3.60;;
59366;SDS011;45163;47.690;11.770;2022-08-30T10:43:01;5.60;;;3.28;;
59366;SDS011;45163;47.690;11.770;2022-08-30T10:45:35;3.90;;;3.50;;
59366;SDS011;45163;47.690;11.770;2022-08-30T10:48:12;4.00;;;3.53;;
59366;SDS011;45163;47.690;11.770;2022-08-30T10:50:51;3.58;;;3.28;;
59366;SDS011;45163;47.690;11.770;2022-08-30T10:53:36;4.32;;;3.92;;
59366;SDS011;45163;47.690;11.770;2022-08-30T10:56:07;3.78;;;3.47;;
59366;SDS011;45163;47.690;11.770;2022-08-30T10:58:37;3.53;;;3.20;;
59366;SDS011;45163;47.690;11.770;2022-08-30T11:14:50;8.68;;;4.00;;
59366;SDS011;45163;47.690;11.770;2022-08-30T11:19:56;3.88;;;3.40;;
59366;SDS011;45163;47.690;11.770;2022-08-30T11:24:58;4.72;;;2.97;;
59366;SDS011;45163;47.690;11.770;2022-08-30T11:27:37;7.07;;;3.70;;
59366;SDS011;45163;47.690;11.770;2022-08-30T11:35:37;7.28;;;3.75;;
59366;SDS011;45163;47.690;11.770;2022-08-30T11:38:17;3.80;;;3.50;;
59366;SDS011;45163;47.690;11.770;2022-08-30T11:40:50;4.28;;;3.30;;
59366;SDS011;45163;47.690;11.770;2022-08-30T11:46:13;5.20;;;3.95;;
59366;SDS011;45163;47.690;11.770;2022-08-30T11:51:44;3.70;;;3.40;;
59366;SDS011;45163;47.690;11.770;2022-08-30T11:57:49;5.28;;;3.72;;
59366;SDS011;45163;47.690;11.770;2022-08-30T12:00:29;4.72;;;3.80;;
59366;SDS011;45163;47.690;11.770;2022-08-30T12:03:02;6.35;;;3.65;;
59366;SDS011;45163;47.690;11.770;2022-08-30T12:10:36;9.57;;;3.92;;
59366;SDS011;45163;47.690;11.770;2022-08-30T12:13:05;8.80;;;3.85;;
59366;SDS011;45163;47.690;11.770;2022-08-30T12:18:17;3.60;;;3.30;;
59366;SDS011;45163;47.690;11.770;2022-08-30T12:20:53;4.40;;;4.00;;
59366;SDS011;45163;47.690;11.770;2022-08-30T12:23:37;3.88;;;3.58;;
59366;SDS011;45163;47.690;11.770;2022-08-30T12:28:42;4.72;;;3.60;;
59366;SDS011;45163;47.690;11.770;2022-08-30T12:31:12;3.72;;;3.42;;
59366;SDS011;45163;47.690;11.770;2022-08-30T12:33:42;4.43;;;3.90;;
59366;SDS011;45163;47.690;11.770;2022-08-30T12:36:29;4.00;;;3.70;;
59366;SDS011;45163;47.690;11.770;2022-08-30T12:39:05;4.35;;;3.70;;
59366;SDS011;45163;47.690;11.770;2022-08-30T12:41:36;3.58;;;3.28;;
59366;SDS011;45163;47.690;11.770;2022-08-30T12:44:03;4.60;;;3.60;;
59366;SDS011;45163;47.690;11.770;2022-08-30T12:46:34;5.47;;;3.50;;
59366;SDS011;45163;47.690;11.770;2022-08-30T12:49:07;3.85;;;3.50;;
59366;SDS011;45163;47.690;11.770;2022-08-30T12:54:14;4.00;;;3.40;;
59366;SDS011;45163;47.690;11.770;2022-08-30T12:57:08;4.45;;;3.70;;
59366;SDS011;45163;47.690;11.770;2022-08-30T13:02:18;3.63;;;3.10;;
59366;SDS011;45163;47.690;11.770;2022-08-30T13:04:50;4.55;;;3.83;;
59366;SDS011;45163;47.690;11.770;2022-08-30T13:12:30;3.92;;;3.60;;
59366;SDS011;45163;47.690;11.770;2022-08-30T13:15:10;4.28;;;3.88;;
59366;SDS011;45163;47.690;11.770;2022-08-30T13:17:37;4.05;;;3.72;;
59366;SDS011;45163;47.690;11.770;2022-08-30T13:20:05;5.22;;;3.22;;
59366;SDS011;45163;47.690;11.770;2022-08-30T13:23:00;3.92;;;3.50;;
59366;SDS011;45163;47.690;11.770;2022-08-30T13:25:28;3.75;;;3.38;;
59366;SDS011;45163;47.690;11.770;2022-08-30T13:27:55;4.72;;;3.42;;
59366;SDS011;45163;47.690;11.770;2022-08-30T13:30:21;5.78;;;3.85;;
59366;SDS011;45163;47.690;11.770;2022-08-30T13:32:48;3.95;;;3.40;;
59366;SDS011;45163;47.690;11.770;2022-08-30T13:35:14;5.43;;;4.40;;
59366;SDS011;45163;47.690;11.770;2022-08-30T13:37:40;4.05;;;3.65;;
59366;SDS011;45163;47.690;11.770;2022-08-30T13:40:11;6.60;;;3.67;;
59366;SDS011;45163;47.690;11.770;2022-08-30T13:42:38;4.03;;;3.70;;
59366;SDS011;45163;47.690;11.770;2022-08-30T13:45:08;5.15;;;3.58;;
59366;SDS011;45163;47.690;11.770;2022-08-30T13:47:35;6.30;;;3.75;;
59366;SDS011;45163;47.690;11.770;2022-08-30T13:50:02;4.55;;;3.35;;
59366;SDS011;45163;47.690;11.770;2022-08-30T13:52:29;3.70;;;3.40;;
59366;SDS011;45163;47.690;11.770;2022-08-30T13:54:56;4.63;;;3.63;;
59366;SDS011;45163;47.690;11.770;2022-08-30T13:57:23;6.45;;;3.42;;
59366;SDS011;45163;47.690;11.770;2022-08-30T13:59:52;3.97;;;3.20;;
59366;SDS011;45163;47.690;11.770;2022-08-30T14:02:18;5.65;;;3.58;;
59366;SDS011;45163;47.690;11.770;2022-08-30T14:04:44;5.15;;;3.55;;
59366;SDS011;45163;47.690;11.770;2022-08-30T14:07:10;4.22;;;3.42;;
59366;SDS011;45163;47.690;11.770;2022-08-30T14:09:37;5.13;;;3.58;;
59366;SDS011;45163;47.690;11.770;2022-08-30T14:12:03;3.80;;;3.40;;
59366;SDS011;45163;47.690;11.770;2022-08-30T14:14:29;5.43;;;3.70;;
59366;SDS011;45163;47.690;11.770;2022-08-30T14:16:55;3.95;;;3.30;;
59366;SDS011;45163;47.690;11.770;2022-08-30T14:19:21;4.93;;;4.10;;
59366;SDS011;45163;47.690;11.770;2022-08-30T14:21:47;4.75;;;3.67;;
59366;SDS011;45163;47.690;11.770;2022-08-30T14:24:13;3.83;;;3.38;;
59366;SDS011;45163;47.690;11.770;2022-08-30T14:26:41;4.45;;;3.47;;
59366;SDS011;45163;47.690;11.770;2022-08-30T14:29:12;5.60;;;3.80;;
59366;SDS011;45163;47.690;11.770;2022-08-30T14:31:41;4.68;;;4.20;;
59366;SDS011;45163;47.690;11.770;2022-08-30T14:34:08;4.43;;;3.88;;
59366;SDS011;45163;47.690;11.770;2022-08-30T14:36:37;6.07;;;3.90;;
59366;SDS011;45163;47.690;11.770;2022-08-30T14:39:06;4.78;;;3.42;;
59366;SDS011;45163;47.690;11.770;2022-08-30T14:41:35;4.85;;;3.90;;
59366;SDS011;45163;47.690;11.770;2022-08-30T14:44:07;3.65;;;3.33;;
59366;SDS011;45163;47.690;11.770;2022-08-30T14:46:33;4.55;;;3.28;;
59366;SDS011;45163;47.690;11.770;2022-08-30T14:48:59;3.88;;;3.40;;
59366;SDS011;45163;47.690;11.770;2022-08-30T14:51:25;4.28;;;3.58;;
59366;SDS011;45163;47.690;11.770;2022-08-30T14:53:51;5.15;;;4.00;;
59366;SDS011;45163;47.690;11.770;2022-08-30T14:56:20;6.57;;;4.10;;
59366;SDS011;45163;47.690;11.770;2022-08-30T14:58:48;7.13;;;4.93;;
59366;SDS011;45163;47.690;11.770;2022-08-30T15:01:16;5.53;;;4.00;;
59366;SDS011;45163;47.690;11.770;2022-08-30T15:03:43;5.03;;;3.80;;
59366;SDS011;45163;47.690;11.770;2022-08-30T15:06:09;4.43;;;3.85;;
59366;SDS011;45163;47.690;11.770;2022-08-30T15:08:36;3.58;;;3.25;;
59366;SDS011;45163;47.690;11.770;2022-08-30T15:11:12;5.93;;;4.20;;
59366;SDS011;45163;47.690;11.770;2022-08-30T15:13:40;5.13;;;4.00;;
59366;SDS011;45163;47.690;11.770;2022-08-30T15:16:10;5.82;;;3.90;;
59366;SDS011;45163;47.690;11.770;2022-08-30T15:18:37;7.10;;;4.35;;
59366;SDS011;45163;47.690;11.770;2022-08-30T15:21:06;4.00;;;3.50;;
59366;SDS011;45163;47.690;11.770;2022-08-30T15:23:32;6.88;;;3.30;;
59366;SDS011;45163;47.690;11.770;2022-08-30T15:25:58;6.18;;;3.50;;
59366;SDS011;45163;47.690;11.770;2022-08-30T15:28:24;4.35;;;3.75;;
59366;SDS011;45163;47.690;11.770;2022-08-30T15:30:50;4.78;;;3.70;;
59366;SDS011;45163;47.690;11.770;2022-08-30T15:33:17;4.25;;;3.58;;
59366;SDS011;45163;47.690;11.770;2022-08-30T15:35:43;4.07;;;3.63;;
59366;SDS011;45163;47.690;11.770;2022-08-30T15:38:09;4.70;;;4.28;;
59366;SDS011;45163;47.690;11.770;2022-08-30T15:40:35;8.15;;;3.63;;
59366;SDS011;45163;47.690;11.770;2022-08-30T15:43:02;3.93;;;3.50;;
59366;SDS011;45163;47.690;11.770;2022-08-30T15:45:28;6.00;;;3.87;;
59366;SDS011;45163;47.690;11.770;2022-08-30T15:47:58;6.57;;;4.10;;
59366;SDS011;45163;47.690;11.770;2022-08-30T15:50:24;4.57;;;3.57;;
59366;SDS011;45163;47.690;11.770;2022-08-30T15:52:51;6.23;;;3.40;;
59366;SDS011;45163;47.690;11.770;2022-08-30T15:55:17;4.70;;;3.50;;
59366;SDS011;45163;47.690;11.770;2022-08-30T15:57:43;5.27;;;3.77;;
59366;SDS011;45163;47.690;11.770;2022-08-30T16:00:09;4.07;;;3.30;;
59366;SDS011;45163;47.690;11.770;2022-08-30T16:02:36;5.80;;;3.83;;
59366;SDS011;45163;47.690;11.770;2022-08-30T16:05:03;4.20;;;3.33;;
59366;SDS011;45163;47.690;11.770;2022-08-30T16:07:29;5.23;;;3.73;;
59366;SDS011;45163;47.690;11.770;2022-08-30T16:09:55;5.00;;;3.73;;
59366;SDS011;45163;47.690;11.770;2022-08-30T16:12:21;4.10;;;3.67;;